VVCR

Details ICAO VVCR (CXR)
Name CAM RANH
Region Vietnam
Timezone Asia/Ho_Chi_Minh (UTC+7.0)
Plans Departing 41
Arriving 59
Stats Elevation 40 ft / 12 m (AMSL)
Location 11.998129° 109.219343°
Runways 1
Magnetic Variation 0.787° W
Sunrise 2018-05-26 22:19:04 UTC / 2018-05-27 05:19:04 Local
Sunset 2018-05-27 11:04:18 UTC / 2018-05-27 18:04:18 Local
Advertisement - Login to hide

Runways

ID Width Length Bearing (true) Bearing (mag) Surface Threshold Offset Overrun Length
02 150 ft / 46 m 10,049 ft / 3,063 m 18.73° 19.52° Concrete 0 ft / 0 m 1,000 ft / 305 m
20 150 ft / 46 m 10,049 ft / 3,063 m 198.73° 199.52° Concrete 0 ft / 0 m 1,000 ft / 305 m

Map

Weather


0- 5 10 15 20 25 30 35+ Temperature / ° C

Clouds and Precipitation
Forecast for 2018-05-27 00:00 UTC. Updated 5 hours ago

Ground ~20,000 ft ~40,000 ft Winds

METAR

VVCR 270400Z 13008KT 9999 FEW015 34/24 Q1010 NOSIG

TAF

TAF VVCR 262300Z 2700/2724 11010KT 9999 FEW015
Warning: Do not use this data for real-world aviation or navigation. No guarantee of current accuracy is given.